Time,TemperatureF,DewpointF,PressureIn,WindDirection,WindDirectionDegrees,WindSpeedMPH,WindSpeedGustMPH,Humidity,HourlyPrecipIn,Conditions,Clouds,dailyrainin,SoftwareType,DateUTC
2013-04-19 00:01:00,77.2,72.0,29.99,SE,137,13.0,13.0,84,0.00,CLR,,0.00,WeatherDisplay:10.37,2013-04-19 04:01:00,
2013-04-19 00:06:00,77.2,72.0,29.99,SE,134,13.8,13.8,84,0.00,CLR,,0.00,WeatherDisplay:10.37,2013-04-19 04:06:00,
2013-04-19 00:11:00,77.3,72.1,29.99,ESE,115,15.0,15.0,84,0.00,CLR,,0.00,WeatherDisplay:10.37,2013-04-19 04:11:00,
2013-04-19 00:16:00,77.3,72.1,29.99,SE,131,13.8,13.8,84,0.00,CLR,,0.00,WeatherDisplay:10.37,2013-04-19 04:16:00,
2013-04-19 00:21:00,77.4,72.2,29.99,SE,142,19.6,19.6,84,0.00,CLR,,0.00,WeatherDisplay:10.37,2013-04-19 04:21:00,
2013-04-19 00:26:00,77.4,72.2,30.00,SSE,152,17.3,17.3,84,0.00,CLR,,0.00,WeatherDisplay:10.37,2013-04-19 04:26:00,
2013-04-19 00:31:00,77.5,72.3,29.99,South,171,11.0,11.0,84,0.00,CLR,,0.00,WeatherDisplay:10.37,2013-04-19 04:31:00,
2013-04-19 00:36:00,77.5,72.3,29.99,SE,141,12.0,12.0,84,0.00,CLR,,0.00,WeatherDisplay:10.37,2013-04-19 04:36:00,
2013-04-19 00:41:00,77.5,71.9,29.99,SSE,159,13.0,13.0,83,0.00,CLR,,0.00,WeatherDisplay:10.37,2013-04-19 04:41:00,
2013-04-19 00:46:00,77.5,71.9,29.99,ESE,113,16.1,16.1,83,0.00,CLR,,0.00,WeatherDisplay:10.37,2013-04-19 04:46:00,
2013-04-19 00:51:00,77.6,71.7,29.99,SE,132,13.8,13.8,82,0.00,CLR,,0.00,WeatherDisplay:10.37,2013-04-19 04:51:00,
2013-04-19 00:56:00,77.6,71.7,29.99,SSE,168,14.0,14.0,82,0.00,CLR,,0.00,WeatherDisplay:10.37,2013-04-19 04:56:00,
2013-04-19 01:01:00,77.7,71.8,29.99,SSE,150,18.4,18.4,82,0.00,CLR,,0.00,WeatherDisplay:10.37,2013-04-19 05:01:00,
2013-04-19 01:06:00,77.7,71.8,29.98,SE,136,13.8,13.8,82,0.00,CLR,,0.00,WeatherDisplay:10.37,2013-04-19 05:06:00,
2013-04-19 01:11:00,77.7,71.4,29.99,SSE,149,17.3,17.3,81,0.00,CLR,,0.00,WeatherDisplay:10.37,2013-04-19 05:11:00,
2013-04-19 01:16:00,77.7,71.4,29.98,SSE,163,16.1,16.1,81,0.00,CLR,,0.00,WeatherDisplay:10.37,2013-04-19 05:16:00,
2013-04-19 01:21:00,77.7,71.4,29.98,SE,142,11.5,11.5,81,0.00,CLR,,0.00,WeatherDisplay:10.37,2013-04-19 05:21:00,
2013-04-19 01:26:00,77.6,71.3,29.98,SE,130,17.3,17.3,81,0.00,CLR,,0.00,WeatherDisplay:10.37,2013-04-19 05:26:00,
2013-04-19 01:31:00,77.6,71.7,29.98,SSE,161,16.1,16.1,82,0.00,CLR,,0.00,WeatherDisplay:10.37,2013-04-19 05:31:00,
2013-04-19 01:36:00,77.6,71.7,29.98,ESE,116,13.8,13.8,82,0.00,CLR,,0.00,WeatherDisplay:10.37,2013-04-19 05:36:00,
2013-04-19 01:41:00,77.5,71.6,29.97,SE,140,13.0,13.0,82,0.00,CLR,,0.00,WeatherDisplay:10.37,2013-04-19 05:41:00,
2013-04-19 01:46:00,77.5,71.9,29.97,SSE,149,15.0,15.0,83,0.00,CLR,,0.00,WeatherDisplay:10.37,2013-04-19 05:46:00,
2013-04-19 01:51:00,77.5,71.9,29.97,South,188,11.5,11.5,83,0.00,CLR,,0.00,WeatherDisplay:10.37,2013-04-19 05:51:00,
2013-04-19 01:56:00,77.5,71.9,29.97,ESE,119,19.6,19.6,83,0.00,CLR,,0.00,WeatherDisplay:10.37,2013-04-19 05:56:00,
2013-04-19 02:01:00,77.6,72.0,29.97,SE,134,12.7,12.7,83,0.00,CLR,,0.00,WeatherDisplay:10.37,2013-04-19 06:01:00,
2013-04-19 02:06:00,77.6,72.0,29.97,SE,141,12.7,12.7,83,0.00,CLR,,0.00,WeatherDisplay:10.37,2013-04-19 06:06:00,
2013-04-19 02:11:00,77.5,71.9,29.97,SE,144,17.3,17.3,83,0.00,CLR,,0.00,WeatherDisplay:10.37,2013-04-19 06:11:00,
2013-04-19 02:16:00,77.5,71.6,29.97,SE,140,17.3,17.3,82,0.00,CLR,,0.00,WeatherDisplay:10.37,2013-04-19 06:16:00,
2013-04-19 02:21:00,77.6,71.7,29.97,ESE,118,18.4,18.4,82,0.00,CLR,,0.00,WeatherDisplay:10.37,2013-04-19 06:21:00,
2013-04-19 02:26:00,77.6,71.7,29.97,SSE,150,11.5,11.5,82,0.00,CLR,,0.00,WeatherDisplay:10.37,2013-04-19 06:26:00,
2013-04-19 02:31:00,77.6,72.0,29.96,SE,126,12.7,12.7,83,0.00,CLR,,0.00,WeatherDisplay:10.37,2013-04-19 06:31:00,
2013-04-19 02:36:00,77.6,71.7,29.96,East,91,15.0,15.0,82,0.00,CLR,,0.00,WeatherDisplay:10.37,2013-04-19 06:36:00,
2013-04-19 02:41:00,77.5,72.3,29.96,South,171,16.1,16.1,84,0.01,RA,,0.01,WeatherDisplay:10.37,2013-04-19 06:41:00,
2013-04-19 02:46:00,76.8,72.3,29.96,SSE,161,4.6,4.6,86,0.02,RA,,0.02,WeatherDisplay:10.37,2013-04-19 06:46:00,
2013-04-19 02:51:00,76.2,72.7,29.96,SSE,157,6.0,6.0,89,0.03,RA,,0.03,WeatherDisplay:10.37,2013-04-19 06:51:00,
2013-04-19 02:56:00,75.9,72.4,29.96,SSE,157,16.1,16.1,89,0.04,RA,,0.04,WeatherDisplay:10.37,2013-04-19 06:56:00,
2013-04-19 03:01:00,75.7,72.6,29.96,SE,139,11.5,11.5,90,0.06,RA,,0.06,WeatherDisplay:10.37,2013-04-19 07:01:00,
2013-04-19 03:06:00,75.5,72.7,29.96,SSE,166,11.5,11.5,91,0.07,RA,,0.07,WeatherDisplay:10.37,2013-04-19 07:06:00,
2013-04-19 03:11:00,75.5,72.7,29.96,South,189,4.6,4.6,91,0.07,RA,,0.07,WeatherDisplay:10.37,2013-04-19 07:11:00,
2013-04-19 03:16:00,75.4,72.6,29.96,South,170,3.5,3.5,91,0.07,,,0.07,WeatherDisplay:10.37,2013-04-19 07:16:00,
2013-04-19 03:21:00,75.2,72.7,29.96,South,185,5.8,5.8,92,0.07,CLR,,0.07,WeatherDisplay:10.37,2013-04-19 07:21:00,
2013-04-19 03:26:00,75.1,72.3,29.96,South,169,6.9,6.9,91,0.07,CLR,,0.07,WeatherDisplay:10.37,2013-04-19 07:26:00,
2013-04-19 03:31:00,74.9,71.8,29.96,South,171,6.9,6.9,90,0.07,CLR,,0.07,WeatherDisplay:10.37,2013-04-19 07:31:00,
2013-04-19 03:36:00,74.9,71.4,29.96,South,184,6.9,6.9,89,0.07,CLR,,0.07,WeatherDisplay:10.37,2013-04-19 07:36:00,
2013-04-19 03:41:00,74.9,71.4,29.96,South,171,5.0,5.0,89,0.06,CLR,,0.07,WeatherDisplay:10.37,2013-04-19 07:41:00,
2013-04-19 03:46:00,74.9,71.1,29.96,South,172,9.2,9.2,88,0.05,CLR,,0.07,WeatherDisplay:10.37,2013-04-19 07:46:00,
2013-04-19 03:51:00,75.1,71.0,29.96,SSE,156,6.0,6.0,87,0.04,CLR,,0.07,WeatherDisplay:10.37,2013-04-19 07:51:00,
2013-04-19 03:56:00,75.2,70.7,29.95,ESE,118,6.9,6.9,86,0.03,CLR,,0.07,WeatherDisplay:10.37,2013-04-19 07:56:00,
2013-04-19 04:01:00,75.2,70.7,29.95,South,178,10.4,10.4,86,0.01,CLR,,0.07,WeatherDisplay:10.37,2013-04-19 08:01:00,
2013-04-19 04:06:00,75.4,70.6,29.95,SSE,151,10.4,10.4,85,0.00,CLR,,0.07,WeatherDisplay:10.37,2013-04-19 08:06:00,
2013-04-19 04:11:00,75.5,70.3,29.96,SSE,147,10.4,10.4,84,0.00,CLR,,0.07,WeatherDisplay:10.37,2013-04-19 08:11:00,
2013-04-19 04:16:00,75.7,70.5,29.96,SSE,152,9.2,9.2,84,0.00,CLR,,0.07,WeatherDisplay:10.37,2013-04-19 08:16:00,
2013-04-19 04:21:00,75.7,70.5,29.96,South,188,6.9,6.9,84,0.00,CLR,,0.07,WeatherDisplay:10.37,2013-04-19 08:21:00,
2013-04-19 04:26:00,75.8,70.6,29.96,SE,146,10.4,10.4,84,0.00,CLR,,0.07,WeatherDisplay:10.37,2013-04-19 08:26:00,
2013-04-19 04:31:00,75.8,70.6,29.95,SSE,168,12.0,12.0,84,0.00,CLR,,0.07,WeatherDisplay:10.37,2013-04-19 08:31:00,
2013-04-19 04:36:00,75.9,70.7,29.95,SSE,150,12.0,12.0,84,0.00,CLR,,0.07,WeatherDisplay:10.37,2013-04-19 08:36:00,
2013-04-19 04:41:00,76.0,70.8,29.95,SSE,163,15.0,15.0,84,0.00,CLR,,0.07,WeatherDisplay:10.37,2013-04-19 08:41:00,
2013-04-19 04:46:00,76.0,70.8,29.96,South,169,6.9,6.9,84,0.00,CLR,,0.07,WeatherDisplay:10.37,2013-04-19 08:46:00,
2013-04-19 04:51:00,76.0,70.8,29.95,South,178,11.5,11.5,84,0.00,CLR,,0.07,WeatherDisplay:10.37,2013-04-19 08:51:00,
2013-04-19 04:56:00,76.1,70.9,29.96,SSE,148,13.8,13.8,84,0.00,CLR,,0.07,WeatherDisplay:10.37,2013-04-19 08:56:00,
2013-04-19 05:01:00,76.1,70.9,29.96,SSE,163,11.5,11.5,84,0.00,CLR,,0.07,WeatherDisplay:10.37,2013-04-19 09:01:00,
2013-04-19 05:06:00,76.2,71.0,29.96,SE,135,10.4,10.4,84,0.00,CLR,,0.07,WeatherDisplay:10.37,2013-04-19 09:06:00,
2013-04-19 05:11:00,76.2,71.0,29.96,SSE,167,11.5,11.5,84,0.00,CLR,,0.07,WeatherDisplay:10.37,2013-04-19 09:11:00,
2013-04-19 05:16:00,76.2,71.0,29.96,SSE,157,6.9,6.9,84,0.00,CLR,,0.07,WeatherDisplay:10.37,2013-04-19 09:16:00,
2013-04-19 05:21:00,76.2,71.4,29.96,South,175,6.9,6.9,85,0.00,CLR,,0.07,WeatherDisplay:10.37,2013-04-19 09:21:00,
2013-04-19 05:26:00,76.2,71.4,29.96,SSE,164,10.4,10.4,85,0.00,CLR,,0.07,WeatherDisplay:10.37,2013-04-19 09:26:00,
2013-04-19 05:31:00,76.2,71.4,29.96,SSE,152,10.4,10.4,85,0.00,CLR,,0.07,WeatherDisplay:10.37,2013-04-19 09:31:00,
2013-04-19 05:36:00,76.2,71.4,29.96,South,173,10.4,10.4,85,0.00,CLR,,0.07,WeatherDisplay:10.37,2013-04-19 09:36:00,
2013-04-19 05:41:00,76.4,71.2,29.96,SE,132,11.5,11.5,84,0.00,CLR,,0.07,WeatherDisplay:10.37,2013-04-19 09:41:00,
2013-04-19 05:46:00,76.5,71.3,29.96,SSE,163,9.2,9.2,84,0.00,CLR,,0.07,WeatherDisplay:10.37,2013-04-19 09:46:00,
2013-04-19 05:51:00,76.6,71.4,29.96,SE,129,10.4,10.4,84,0.00,CLR,,0.07,WeatherDisplay:10.37,2013-04-19 09:51:00,
2013-04-19 05:56:00,76.7,71.1,29.97,SE,134,11.5,11.5,83,0.00,CLR,,0.07,WeatherDisplay:10.37,2013-04-19 09:56:00,
2013-04-19 06:01:00,76.8,71.2,29.97,SE,125,11.5,11.5,83,0.00,CLR,,0.07,WeatherDisplay:10.37,2013-04-19 10:01:00,
2013-04-19 06:06:00,76.7,71.5,29.97,South,179,13.8,13.8,84,0.00,CLR,,0.07,WeatherDisplay:10.37,2013-04-19 10:06:00,
2013-04-19 06:11:00,76.8,71.6,29.97,SSW,206,8.1,8.1,84,0.00,CLR,,0.07,WeatherDisplay:10.37,2013-04-19 10:11:00,
2013-04-19 06:16:00,76.7,71.5,29.97,South,176,6.9,6.9,84,0.00,CLR,,0.07,WeatherDisplay:10.37,2013-04-19 10:16:00,
2013-04-19 06:21:00,76.8,71.6,29.97,SSE,153,10.4,10.4,84,0.00,CLR,,0.07,WeatherDisplay:10.37,2013-04-19 10:21:00,
2013-04-19 06:26:00,76.8,71.2,29.97,South,180,10.4,10.4,83,0.00,CLR,,0.07,WeatherDisplay:10.37,2013-04-19 10:26:00,
2013-04-19 06:31:00,76.8,71.2,29.97,South,178,9.2,9.2,83,0.00,CLR,,0.07,WeatherDisplay:10.37,2013-04-19 10:31:00,
2013-04-19 06:36:00,76.7,71.5,29.97,SSE,147,6.0,6.0,84,0.00,CLR,,0.07,WeatherDisplay:10.37,2013-04-19 10:36:00,
2013-04-19 06:41:00,76.6,71.0,29.98,South,187,11.5,11.5,83,0.00,CLR,,0.07,WeatherDisplay:10.37,2013-04-19 10:41:00,
2013-04-19 06:46:00,76.6,71.0,29.98,ESE,115,11.5,11.5,83,0.00,CLR,,0.07,WeatherDisplay:10.37,2013-04-19 10:46:00,
2013-04-19 06:51:00,76.6,71.0,29.98,SE,142,11.5,11.5,83,0.00,CLR,,0.07,WeatherDisplay:10.37,2013-04-19 10:51:00,
2013-04-19 06:56:00,76.6,71.0,29.98,SSW,202,9.2,9.2,83,0.00,CLR,,0.07,WeatherDisplay:10.37,2013-04-19 10:56:00,
2013-04-19 07:01:00,76.6,71.0,29.98,SSE,157,9.2,9.2,83,0.00,CLR,,0.07,WeatherDisplay:10.37,2013-04-19 11:01:00,
2013-04-19 07:06:00,76.6,71.0,29.98,SSE,161,9.2,9.2,83,0.00,CLR,,0.07,WeatherDisplay:10.37,2013-04-19 11:06:00,
2013-04-19 07:11:00,76.6,71.0,29.98,SSE,164,11.5,11.5,83,0.00,CLR,,0.07,WeatherDisplay:10.37,2013-04-19 11:11:00,
2013-04-19 07:16:00,76.6,71.0,29.98,South,176,10.4,10.4,83,0.00,CLR,,0.07,WeatherDisplay:10.37,2013-04-19 11:16:00,
2013-04-19 07:21:00,76.7,70.8,29.98,SSE,150,13.8,13.8,82,0.00,CLR,,0.07,WeatherDisplay:10.37,2013-04-19 11:21:00,
2013-04-19 07:26:00,76.9,71.0,29.98,SE,145,11.5,11.5,82,0.00,CLR,,0.07,WeatherDisplay:10.37,2013-04-19 11:26:00,
2013-04-19 07:31:00,77.1,70.8,29.98,SSE,167,10.4,10.4,81,0.00,CLR,,0.07,WeatherDisplay:10.37,2013-04-19 11:31:00,
2013-04-19 07:36:00,77.4,70.7,29.99,SE,146,6.9,6.9,80,0.00,CLR,,0.07,WeatherDisplay:10.37,2013-04-19 11:36:00,
2013-04-19 07:41:00,77.6,70.2,29.99,SSW,195,11.5,11.5,78,0.00,CLR,,0.07,WeatherDisplay:10.37,2013-04-19 11:41:00,
2013-04-19 07:46:00,77.9,70.5,29.99,South,173,10.4,10.4,78,0.00,CLR,,0.07,WeatherDisplay:10.37,2013-04-19 11:46:00,
2013-04-19 07:51:00,78.1,70.7,29.99,SSE,163,10.4,10.4,78,0.00,CLR,,0.07,WeatherDisplay:10.37,2013-04-19 11:51:00,
2013-04-19 07:56:00,78.3,70.9,29.99,South,170,10.4,10.4,78,0.00,CLR,,0.07,WeatherDisplay:10.37,2013-04-19 11:56:00,
2013-04-19 08:01:00,78.4,71.0,29.99,South,178,12.7,12.7,78,0.00,CLR,,0.07,WeatherDisplay:10.37,2013-04-19 12:01:00,
2013-04-19 08:06:00,78.6,71.2,29.99,SE,140,11.5,11.5,78,0.00,CLR,,0.07,WeatherDisplay:10.37,2013-04-19 12:06:00,
2013-04-19 08:11:00,78.6,71.2,30.00,South,172,11.5,11.5,78,0.00,CLR,,0.07,WeatherDisplay:10.37,2013-04-19 12:11:00,
2013-04-19 08:16:00,78.9,71.5,30.00,SSE,153,10.4,10.4,78,0.00,CLR,,0.07,WeatherDisplay:10.37,2013-04-19 12:16:00,
2013-04-19 08:21:00,79.1,71.3,30.00,ESE,119,15.0,15.0,77,0.00,CLR,,0.07,WeatherDisplay:10.37,2013-04-19 12:21:00,
2013-04-19 08:26:00,79.2,71.0,30.00,SSE,160,18.4,18.4,76,0.00,CLR,,0.07,WeatherDisplay:10.37,2013-04-19 12:26:00,
2013-04-19 08:31:00,79.4,71.2,30.00,SSE,155,15.0,15.0,76,0.00,CLR,,0.07,WeatherDisplay:10.37,2013-04-19 12:31:00,
2013-04-19 08:36:00,79.7,71.1,30.00,SSE,148,12.7,12.7,75,0.00,CLR,,0.07,WeatherDisplay:10.37,2013-04-19 12:36:00,
2013-04-19 08:41:00,79.8,71.2,30.00,SSE,158,17.0,17.0,75,0.00,CLR,,0.07,WeatherDisplay:10.37,2013-04-19 12:41:00,
2013-04-19 08:46:00,79.8,71.2,30.00,ESE,105,12.7,12.7,75,0.00,CLR,,0.07,WeatherDisplay:10.37,2013-04-19 12:46:00,
2013-04-19 08:51:00,79.9,71.3,30.01,South,169,12.7,12.7,75,0.00,CLR,,0.07,WeatherDisplay:10.37,2013-04-19 12:51:00,
2013-04-19 08:56:00,80.1,71.1,30.00,South,173,11.5,11.5,74,0.00,CLR,,0.07,WeatherDisplay:10.37,2013-04-19 12:56:00,
2013-04-19 09:01:00,80.0,70.6,30.01,South,178,20.0,20.0,73,0.00,CLR,,0.07,WeatherDisplay:10.37,2013-04-19 13:01:00,
2013-04-19 09:06:00,79.9,70.5,30.01,South,169,18.4,18.4,73,0.00,CLR,,0.07,WeatherDisplay:10.37,2013-04-19 13:06:00,
2013-04-19 09:11:00,79.4,70.0,30.01,South,185,17.3,17.3,73,0.00,CLR,,0.07,WeatherDisplay:10.37,2013-04-19 13:11:00,
2013-04-19 09:16:00,79.6,70.6,30.01,SSE,157,15.0,15.0,74,0.00,CLR,,0.07,WeatherDisplay:10.37,2013-04-19 13:16:00,
2013-04-19 09:21:00,80.0,71.4,30.01,South,173,13.8,13.8,75,0.00,CLR,,0.07,WeatherDisplay:10.37,2013-04-19 13:21:00,
2013-04-19 09:26:00,80.0,70.6,30.02,South,186,15.0,15.0,73,0.00,CLR,,0.07,WeatherDisplay:10.37,2013-04-19 13:26:00,
2013-04-19 09:31:00,80.0,71.0,30.01,SSE,153,15.0,15.0,74,0.00,CLR,,0.07,WeatherDisplay:10.37,2013-04-19 13:31:00,
2013-04-19 09:36:00,79.8,70.8,30.01,SE,135,15.0,15.0,74,0.00,CLR,,0.07,WeatherDisplay:10.37,2013-04-19 13:36:00,
2013-04-19 09:41:00,80.0,71.0,30.01,SE,125,13.8,13.8,74,0.00,CLR,,0.07,WeatherDisplay:10.37,2013-04-19 13:41:00,
2013-04-19 09:46:00,80.5,71.4,30.01,SSE,147,16.1,16.1,74,0.00,CLR,,0.07,WeatherDisplay:10.37,2013-04-19 13:46:00,
2013-04-19 09:51:00,81.2,71.3,30.01,SE,132,16.1,16.1,72,0.00,CLR,,0.07,WeatherDisplay:10.37,2013-04-19 13:51:00,
2013-04-19 09:56:00,81.0,70.7,30.01,South,181,16.1,16.1,71,0.00,CLR,,0.07,WeatherDisplay:10.37,2013-04-19 13:56:00,
2013-04-19 10:01:00,80.6,69.9,30.01,South,169,17.3,17.3,70,0.00,CLR,,0.07,WeatherDisplay:10.37,2013-04-19 14:01:00,
2013-04-19 10:06:00,81.0,70.7,30.01,South,175,10.4,10.4,71,0.00,CLR,,0.07,WeatherDisplay:10.37,2013-04-19 14:06:00,
2013-04-19 10:11:00,81.4,71.1,30.01,SSE,147,19.6,19.6,71,0.00,CLR,,0.07,WeatherDisplay:10.37,2013-04-19 14:11:00,
2013-04-19 10:16:00,81.4,71.5,30.01,SSW,192,15.0,15.0,72,0.00,CLR,,0.07,WeatherDisplay:10.37,2013-04-19 14:16:00,
2013-04-19 10:21:00,81.6,70.9,30.01,South,174,12.7,12.7,70,0.00,CLR,,0.07,WeatherDisplay:10.37,2013-04-19 14:21:00,
2013-04-19 10:26:00,82.2,72.3,30.01,SSE,152,17.3,17.3,72,0.00,CLR,,0.07,WeatherDisplay:10.37,2013-04-19 14:26:00,
2013-04-19 10:31:00,82.7,71.5,30.01,South,178,17.3,17.3,69,0.00,CLR,,0.07,WeatherDisplay:10.37,2013-04-19 14:31:00,
2013-04-19 10:36:00,82.5,71.3,30.01,SE,140,13.8,13.8,69,0.00,CLR,,0.07,WeatherDisplay:10.37,2013-04-19 14:36:00,
2013-04-19 10:41:00,82.5,71.7,30.01,SSE,148,18.4,18.4,70,0.00,CLR,,0.07,WeatherDisplay:10.37,2013-04-19 14:41:00,
2013-04-19 10:46:00,82.5,72.1,30.01,SSE,159,16.1,16.1,71,0.00,CLR,,0.07,WeatherDisplay:10.37,2013-04-19 14:46:00,
2013-04-19 10:51:00,81.7,72.2,30.01,SSE,152,15.0,15.0,73,0.00,CLR,,0.07,WeatherDisplay:10.37,2013-04-19 14:51:00,
2013-04-19 10:56:00,81.7,72.2,30.01,SSE,153,15.0,15.0,73,0.00,CLR,,0.07,WeatherDisplay:10.37,2013-04-19 14:56:00,
2013-04-19 11:01:00,82.3,72.4,30.01,SSW,196,18.4,18.4,72,0.00,CLR,,0.07,WeatherDisplay:10.37,2013-04-19 15:01:00,
2013-04-19 11:06:00,82.3,72.0,30.02,SSE,150,18.4,18.4,71,0.00,CLR,,0.07,WeatherDisplay:10.37,2013-04-19 15:06:00,
2013-04-19 11:11:00,82.7,72.3,30.01,SE,140,17.3,17.3,71,0.00,CLR,,0.07,WeatherDisplay:10.37,2013-04-19 15:11:00,
2013-04-19 11:16:00,83.0,71.8,30.01,SSW,192,21.9,21.9,69,0.00,CLR,,0.07,WeatherDisplay:10.37,2013-04-19 15:16:00,
2013-04-19 11:21:00,83.2,72.0,30.02,SSE,157,20.0,20.0,69,0.00,CLR,,0.07,WeatherDisplay:10.37,2013-04-19 15:21:00,
2013-04-19 11:26:00,83.0,72.2,30.02,SSE,148,16.1,16.1,70,0.00,CLR,,0.07,WeatherDisplay:10.37,2013-04-19 15:26:00,
2013-04-19 11:31:00,83.3,72.5,30.02,SE,142,17.3,17.3,70,0.00,CLR,,0.07,WeatherDisplay:10.37,2013-04-19 15:31:00,
2013-04-19 11:36:00,83.2,72.4,30.01,SSE,149,19.6,19.6,70,0.00,CLR,,0.07,WeatherDisplay:10.37,2013-04-19 15:36:00,
2013-04-19 11:41:00,83.2,72.0,30.01,SE,140,19.6,19.6,69,0.00,CLR,,0.07,WeatherDisplay:10.37,2013-04-19 15:41:00,
2013-04-19 11:46:00,83.2,71.5,30.01,South,173,19.6,19.6,68,0.00,CLR,,0.07,WeatherDisplay:10.37,2013-04-19 15:46:00,
2013-04-19 11:51:00,82.9,72.1,30.01,SSE,164,17.0,17.0,70,0.00,CLR,,0.07,WeatherDisplay:10.37,2013-04-19 15:51:00,
2013-04-19 11:56:00,82.8,71.6,30.01,SW,216,19.6,19.6,69,0.00,CLR,,0.07,WeatherDisplay:10.37,2013-04-19 15:56:00,
2013-04-19 12:01:00,83.4,72.2,30.01,South,184,12.0,12.0,69,0.00,CLR,,0.07,WeatherDisplay:10.37,2013-04-19 16:01:00,
2013-04-19 12:06:00,83.7,72.4,30.01,SSE,155,17.3,17.3,69,0.00,CLR,,0.07,WeatherDisplay:10.37,2013-04-19 16:06:00,
2013-04-19 12:11:00,84.1,72.4,30.01,SSE,151,19.6,19.6,68,0.00,CLR,,0.07,WeatherDisplay:10.37,2013-04-19 16:11:00,
2013-04-19 12:16:00,84.5,72.3,30.01,South,174,18.4,18.4,67,0.00,CLR,,0.07,WeatherDisplay:10.37,2013-04-19 16:16:00,
2013-04-19 12:21:00,84.5,72.3,30.01,SE,124,19.6,19.6,67,0.00,CLR,,0.07,WeatherDisplay:10.37,2013-04-19 16:21:00,
2013-04-19 12:26:00,84.1,72.0,30.01,South,188,17.3,17.3,67,0.00,CLR,,0.07,WeatherDisplay:10.37,2013-04-19 16:26:00,
2013-04-19 12:31:00,84.4,72.7,30.00,SSE,150,18.4,18.4,68,0.00,CLR,,0.07,WeatherDisplay:10.37,2013-04-19 16:31:00,
2013-04-19 12:36:00,84.4,72.7,30.00,SSE,159,13.8,13.8,68,0.00,CLR,,0.07,WeatherDisplay:10.37,2013-04-19 16:36:00,
2013-04-19 12:41:00,84.0,72.3,30.00,South,177,17.3,17.3,68,0.00,CLR,,0.07,WeatherDisplay:10.37,2013-04-19 16:41:00,
2013-04-19 12:46:00,83.9,72.6,30.00,SSE,157,19.6,19.6,69,0.00,CLR,,0.07,WeatherDisplay:10.37,2013-04-19 16:46:00,
2013-04-19 12:51:00,84.0,72.3,30.00,SSE,163,19.6,19.6,68,0.00,CLR,,0.07,WeatherDisplay:10.37,2013-04-19 16:51:00,
2013-04-19 12:56:00,84.1,72.4,29.99,SE,138,20.7,20.7,68,0.00,CLR,,0.07,WeatherDisplay:10.37,2013-04-19 16:56:00,
2013-04-19 13:01:00,83.8,73.0,29.99,ESE,117,16.1,16.1,70,0.00,CLR,,0.07,WeatherDisplay:10.37,2013-04-19 17:01:00,
2013-04-19 13:06:00,83.9,73.1,30.00,SE,141,21.9,21.9,70,0.00,CLR,,0.07,WeatherDisplay:10.37,2013-04-19 17:06:00,
2013-04-19 13:11:00,83.6,71.9,29.99,ESE,108,16.1,16.1,68,0.00,CLR,,0.07,WeatherDisplay:10.37,2013-04-19 17:11:00,
2013-04-19 13:16:00,84.2,72.0,29.99,SE,132,18.4,18.4,67,0.00,CLR,,0.07,WeatherDisplay:10.37,2013-04-19 17:16:00,
2013-04-19 13:21:00,84.5,72.3,29.99,SSE,162,20.7,20.7,67,0.00,CLR,,0.07,WeatherDisplay:10.37,2013-04-19 17:21:00,
2013-04-19 13:26:00,84.2,72.0,29.99,SSE,153,21.9,21.9,67,0.00,CLR,,0.07,WeatherDisplay:10.37,2013-04-19 17:26:00,
2013-04-19 13:31:00,84.0,71.4,29.99,South,180,19.6,19.6,66,0.00,CLR,,0.07,WeatherDisplay:10.37,2013-04-19 17:31:00,
2013-04-19 13:36:00,84.0,71.4,29.99,South,173,19.6,19.6,66,0.00,CLR,,0.07,WeatherDisplay:10.37,2013-04-19 17:36:00,
2013-04-19 13:41:00,84.0,71.9,29.99,SSE,151,17.3,17.3,67,0.00,CLR,,0.07,WeatherDisplay:10.37,2013-04-19 17:41:00,
2013-04-19 13:46:00,84.2,70.2,29.99,SSE,153,19.6,19.6,63,0.00,CLR,,0.07,WeatherDisplay:10.37,2013-04-19 17:46:00,
2013-04-19 13:51:00,84.2,71.2,29.99,SE,144,16.1,16.1,65,0.00,CLR,,0.07,WeatherDisplay:10.37,2013-04-19 17:51:00,
2013-04-19 13:56:00,84.2,70.7,29.99,South,188,11.5,11.5,64,0.00,CLR,,0.07,WeatherDisplay:10.37,2013-04-19 17:56:00,
2013-04-19 14:01:00,84.2,70.7,29.99,South,186,19.6,19.6,64,0.00,CLR,,0.07,WeatherDisplay:10.37,2013-04-19 18:01:00,
2013-04-19 14:06:00,83.8,71.2,29.99,SSE,157,18.4,18.4,66,0.00,CLR,,0.07,WeatherDisplay:10.37,2013-04-19 18:06:00,
2013-04-19 14:11:00,83.9,71.3,29.99,SSE,161,17.3,17.3,66,0.00,CLR,,0.07,WeatherDisplay:10.37,2013-04-19 18:11:00,
2013-04-19 14:16:00,83.8,70.8,29.99,SSE,148,19.6,19.6,65,0.00,CLR,,0.07,WeatherDisplay:10.37,2013-04-19 18:16:00,
2013-04-19 14:21:00,83.6,71.0,29.99,SE,139,20.7,20.7,66,0.00,CLR,,0.07,WeatherDisplay:10.37,2013-04-19 18:21:00,
2013-04-19 14:26:00,83.9,71.3,29.99,SSE,165,21.9,21.9,66,0.00,CLR,,0.07,WeatherDisplay:10.37,2013-04-19 18:26:00,
2013-04-19 14:31:00,84.2,70.7,29.98,South,169,16.1,16.1,64,0.00,CLR,,0.07,WeatherDisplay:10.37,2013-04-19 18:31:00,
2013-04-19 14:36:00,84.1,71.5,29.98,South,177,20.7,20.7,66,0.00,CLR,,0.07,WeatherDisplay:10.37,2013-04-19 18:36:00,
2013-04-19 14:41:00,84.0,71.0,29.98,SSE,162,21.9,21.9,65,0.00,CLR,,0.07,WeatherDisplay:10.37,2013-04-19 18:41:00,
2013-04-19 14:46:00,83.6,71.0,29.98,SSE,153,19.6,19.6,66,0.00,CLR,,0.07,WeatherDisplay:10.37,2013-04-19 18:46:00,
2013-04-19 14:51:00,83.2,71.1,29.98,SW,225,18.4,18.4,67,0.00,CLR,,0.07,WeatherDisplay:10.37,2013-04-19 18:51:00,
2013-04-19 14:56:00,83.2,72.0,29.98,SE,130,18.4,18.4,69,0.00,CLR,,0.07,WeatherDisplay:10.37,2013-04-19 18:56:00,
2013-04-19 15:01:00,83.1,71.4,29.98,SSE,155,15.0,15.0,68,0.00,CLR,,0.07,WeatherDisplay:10.37,2013-04-19 19:01:00,
2013-04-19 15:06:00,83.1,71.0,29.97,SE,129,16.1,16.1,67,0.00,CLR,,0.07,WeatherDisplay:10.37,2013-04-19 19:06:00,
2013-04-19 15:11:00,83.2,71.5,29.98,SSE,157,13.8,13.8,68,0.00,CLR,,0.07,WeatherDisplay:10.37,2013-04-19 19:11:00,
2013-04-19 15:16:00,83.7,72.0,29.97,SSE,168,19.6,19.6,68,0.00,CLR,,0.07,WeatherDisplay:10.37,2013-04-19 19:16:00,
2013-04-19 15:21:00,83.6,71.9,29.97,South,182,18.4,18.4,68,0.00,CLR,,0.07,WeatherDisplay:10.37,2013-04-19 19:21:00,
2013-04-19 15:26:00,83.4,71.7,29.96,SSE,152,18.4,18.4,68,0.00,CLR,,0.07,WeatherDisplay:10.37,2013-04-19 19:26:00,
2013-04-19 15:31:00,83.2,72.0,29.96,SSE,153,11.5,11.5,69,0.00,CLR,,0.07,WeatherDisplay:10.37,2013-04-19 19:31:00,
2013-04-19 15:36:00,83.3,72.1,29.96,SSE,160,18.4,18.4,69,0.00,CLR,,0.07,WeatherDisplay:10.37,2013-04-19 19:36:00,
2013-04-19 15:41:00,83.6,71.9,29.95,South,191,18.4,18.4,68,0.00,CLR,,0.07,WeatherDisplay:10.37,2013-04-19 19:41:00,
2013-04-19 15:46:00,83.7,72.4,29.95,SE,140,17.3,17.3,69,0.00,CLR,,0.07,WeatherDisplay:10.37,2013-04-19 19:46:00,
2013-04-19 15:51:00,83.8,71.7,29.95,South,182,19.6,19.6,67,0.00,CLR,,0.07,WeatherDisplay:10.37,2013-04-19 19:51:00,
2013-04-19 15:56:00,83.8,70.3,29.94,South,174,21.9,21.9,64,0.00,CLR,,0.07,WeatherDisplay:10.37,2013-04-19 19:56:00,
2013-04-19 16:01:00,84.1,72.0,29.94,SE,134,16.0,16.0,67,0.00,CLR,,0.07,WeatherDisplay:10.37,2013-04-19 20:01:00,
2013-04-19 16:06:00,83.9,70.9,29.94,South,191,16.1,16.1,65,0.00,CLR,,0.07,WeatherDisplay:10.37,2013-04-19 20:06:00,
2013-04-19 16:11:00,83.5,70.9,29.94,South,171,15.0,15.0,66,0.00,CLR,,0.07,WeatherDisplay:10.37,2013-04-19 20:11:00,
2013-04-19 16:16:00,83.6,71.5,29.94,South,177,15.0,15.0,67,0.00,CLR,,0.07,WeatherDisplay:10.37,2013-04-19 20:16:00,
2013-04-19 16:21:00,84.0,71.0,29.94,SSE,167,15.0,15.0,65,0.00,CLR,,0.07,WeatherDisplay:10.37,2013-04-19 20:21:00,
2013-04-19 16:26:00,84.0,70.0,29.93,SSE,163,15.0,15.0,63,0.00,CLR,,0.07,WeatherDisplay:10.37,2013-04-19 20:26:00,
2013-04-19 16:31:00,84.3,70.3,29.94,SSW,198,13.0,13.0,63,0.00,CLR,,0.07,WeatherDisplay:10.37,2013-04-19 20:31:00,
2013-04-19 16:36:00,84.5,70.0,29.93,East,79,16.1,16.1,62,0.00,CLR,,0.07,WeatherDisplay:10.37,2013-04-19 20:36:00,
2013-04-19 16:41:00,84.5,70.5,29.93,SSE,166,16.1,16.1,63,0.00,CLR,,0.07,WeatherDisplay:10.37,2013-04-19 20:41:00,
2013-04-19 16:46:00,84.1,69.7,29.93,SSE,161,17.3,17.3,62,0.00,CLR,,0.07,WeatherDisplay:10.37,2013-04-19 20:46:00,
2013-04-19 16:51:00,84.2,69.3,29.93,SSE,147,17.3,17.3,61,0.00,CLR,,0.07,WeatherDisplay:10.37,2013-04-19 20:51:00,
2013-04-19 16:56:00,84.2,69.3,29.93,South,169,18.4,18.4,61,0.00,CLR,,0.07,WeatherDisplay:10.37,2013-04-19 20:56:00,
2013-04-19 17:01:00,84.1,69.2,29.93,South,179,23.0,23.0,61,0.00,CLR,,0.07,WeatherDisplay:10.37,2013-04-19 21:01:00,
2013-04-19 17:06:00,84.2,69.3,29.93,SSE,150,19.6,19.6,61,0.00,CLR,,0.07,WeatherDisplay:10.37,2013-04-19 21:06:00,
2013-04-19 17:11:00,83.8,68.9,29.93,SSE,148,13.8,13.8,61,0.00,CLR,,0.07,WeatherDisplay:10.37,2013-04-19 21:11:00,
2013-04-19 17:16:00,83.6,68.7,29.94,SSW,202,17.3,17.3,61,0.00,CLR,,0.07,WeatherDisplay:10.37,2013-04-19 21:16:00,
2013-04-19 17:21:00,83.4,69.5,29.94,South,175,12.0,12.0,63,0.00,CLR,,0.07,WeatherDisplay:10.37,2013-04-19 21:21:00,
2013-04-19 17:26:00,83.5,68.2,29.94,South,179,18.4,18.4,60,0.00,CLR,,0.07,WeatherDisplay:10.37,2013-04-19 21:26:00,
2013-04-19 17:31:00,83.5,69.6,29.94,SSE,160,16.1,16.1,63,0.00,CLR,,0.07,WeatherDisplay:10.37,2013-04-19 21:31:00,
2013-04-19 17:36:00,83.0,70.0,29.94,SSE,162,19.6,19.6,65,0.00,CLR,,0.07,WeatherDisplay:10.37,2013-04-19 21:36:00,
2013-04-19 17:41:00,82.2,69.7,29.94,SW,219,17.3,17.3,66,0.00,CLR,,0.07,WeatherDisplay:10.37,2013-04-19 21:41:00,
2013-04-19 17:46:00,82.1,70.1,29.94,South,180,21.9,21.9,67,0.00,CLR,,0.07,WeatherDisplay:10.37,2013-04-19 21:46:00,
2013-04-19 17:51:00,82.4,71.2,29.94,SSE,160,15.0,15.0,69,0.00,CLR,,0.07,WeatherDisplay:10.37,2013-04-19 21:51:00,
2013-04-19 17:56:00,82.5,70.9,29.94,SE,141,18.4,18.4,68,0.00,CLR,,0.07,WeatherDisplay:10.37,2013-04-19 21:56:00,
2013-04-19 18:01:00,82.2,70.6,29.94,South,169,17.3,17.3,68,0.00,CLR,,0.07,WeatherDisplay:10.37,2013-04-19 22:01:00,
2013-04-19 18:06:00,81.9,70.7,29.94,South,175,16.1,16.1,69,0.00,CLR,,0.07,WeatherDisplay:10.37,2013-04-19 22:06:00,
2013-04-19 18:11:00,81.6,70.4,29.94,South,182,17.3,17.3,69,0.00,CLR,,0.07,WeatherDisplay:10.37,2013-04-19 22:11:00,
2013-04-19 18:16:00,81.5,70.3,29.94,South,176,15.0,15.0,69,0.00,CLR,,0.07,WeatherDisplay:10.37,2013-04-19 22:16:00,
2013-04-19 18:21:00,81.3,70.2,29.94,South,180,15.0,15.0,69,0.00,CLR,,0.07,WeatherDisplay:10.37,2013-04-19 22:21:00,
2013-04-19 18:26:00,81.4,70.2,29.93,SSE,163,11.5,11.5,69,0.00,CLR,,0.07,WeatherDisplay:10.37,2013-04-19 22:26:00,
2013-04-19 18:31:00,81.4,70.7,29.93,SSW,211,15.0,15.0,70,0.00,CLR,,0.07,WeatherDisplay:10.37,2013-04-19 22:31:00,
2013-04-19 18:36:00,81.4,71.1,29.94,South,178,13.8,13.8,71,0.00,CLR,,0.07,WeatherDisplay:10.37,2013-04-19 22:36:00,
2013-04-19 18:41:00,81.4,71.1,29.94,SSE,167,17.3,17.3,71,0.00,CLR,,0.07,WeatherDisplay:10.37,2013-04-19 22:41:00,
2013-04-19 18:46:00,81.2,71.3,29.94,South,169,12.7,12.7,72,0.00,CLR,,0.07,WeatherDisplay:10.37,2013-04-19 22:46:00,
2013-04-19 18:51:00,81.1,71.6,29.94,SSE,158,11.5,11.5,73,0.00,CLR,,0.07,WeatherDisplay:10.37,2013-04-19 22:51:00,
2013-04-19 18:56:00,80.9,71.4,29.93,SSE,155,11.5,11.5,73,0.00,CLR,,0.07,WeatherDisplay:10.37,2013-04-19 22:56:00,
2013-04-19 19:01:00,80.6,71.5,29.93,SSW,201,15.0,15.0,74,0.00,CLR,,0.07,WeatherDisplay:10.37,2013-04-19 23:01:00,
2013-04-19 19:06:00,80.3,71.3,29.93,South,176,18.4,18.4,74,0.00,CLR,,0.07,WeatherDisplay:10.37,2013-04-19 23:06:00,
2013-04-19 19:11:00,80.1,71.1,29.93,SE,146,17.3,17.3,74,0.00,CLR,,0.07,WeatherDisplay:10.37,2013-04-19 23:11:00,
2013-04-19 19:16:00,80.0,71.8,29.93,SSE,155,5.8,5.8,76,0.00,CLR,,0.07,WeatherDisplay:10.37,2013-04-19 23:16:00,
2013-04-19 19:21:00,79.9,71.7,29.93,SSE,151,11.5,11.5,76,0.00,CLR,,0.07,WeatherDisplay:10.37,2013-04-19 23:21:00,
2013-04-19 19:26:00,79.7,71.8,29.93,South,170,12.7,12.7,77,0.00,CLR,,0.07,WeatherDisplay:10.37,2013-04-19 23:26:00,
2013-04-19 19:31:00,79.6,71.8,29.94,South,182,11.5,11.5,77,0.00,CLR,,0.07,WeatherDisplay:10.37,2013-04-19 23:31:00,
2013-04-19 19:36:00,79.5,72.0,29.94,South,188,11.5,11.5,78,0.00,CLR,,0.07,WeatherDisplay:10.37,2013-04-19 23:36:00,
2013-04-19 19:41:00,79.5,72.0,29.95,South,186,11.5,11.5,78,0.00,CLR,,0.07,WeatherDisplay:10.37,2013-04-19 23:41:00,
2013-04-19 19:46:00,79.4,72.3,29.95,WSW,238,11.5,11.5,79,0.00,CLR,,0.07,WeatherDisplay:10.37,2013-04-19 23:46:00,
2013-04-19 19:51:00,79.4,71.9,29.96,SSE,155,15.0,15.0,78,0.00,CLR,,0.07,WeatherDisplay:10.37,2013-04-19 23:51:00,
2013-04-19 19:56:00,79.2,72.1,29.96,South,170,11.5,11.5,79,0.00,CLR,,0.07,WeatherDisplay:10.37,2013-04-19 23:56:00,
2013-04-19 20:01:00,79.1,72.0,29.96,South,184,11.5,11.5,79,0.00,CLR,,0.07,WeatherDisplay:10.37,2013-04-20 00:01:00,
2013-04-19 20:06:00,79.1,72.4,29.97,South,171,6.9,6.9,80,0.00,CLR,,0.07,WeatherDisplay:10.37,2013-04-20 00:06:00,
2013-04-19 20:11:00,79.0,72.3,29.97,South,184,8.1,8.1,80,0.00,CLR,,0.07,WeatherDisplay:10.37,2013-04-20 00:11:00,
2013-04-19 20:16:00,78.9,72.2,29.97,South,183,8.1,8.1,80,0.00,CLR,,0.07,WeatherDisplay:10.37,2013-04-20 00:16:00,
2013-04-19 20:21:00,78.9,72.2,29.97,South,175,10.4,10.4,80,0.00,CLR,,0.07,WeatherDisplay:10.37,2013-04-20 00:21:00,
2013-04-19 20:26:00,78.9,72.2,29.97,South,186,6.0,6.0,80,0.00,CLR,,0.07,WeatherDisplay:10.37,2013-04-20 00:26:00,
2013-04-19 20:31:00,78.8,72.5,29.97,South,184,3.5,3.5,81,0.00,CLR,,0.07,WeatherDisplay:10.37,2013-04-20 00:31:00,
2013-04-19 20:36:00,78.7,72.4,29.98,SSE,161,5.8,5.8,81,0.00,CLR,,0.07,WeatherDisplay:10.37,2013-04-20 00:36:00,
2013-04-19 20:41:00,78.7,72.4,29.97,South,180,3.5,3.5,81,0.00,CLR,,0.07,WeatherDisplay:10.37,2013-04-20 00:41:00,
2013-04-19 20:46:00,78.6,72.3,29.98,SSE,167,5.0,5.0,81,0.00,CLR,,0.07,WeatherDisplay:10.37,2013-04-20 00:46:00,
2013-04-19 20:51:00,78.5,71.8,29.98,SSE,161,10.4,10.4,80,0.00,CLR,,0.07,WeatherDisplay:10.37,2013-04-20 00:51:00,
2013-04-19 20:56:00,78.5,71.8,29.98,SSW,198,7.0,7.0,80,0.00,CLR,,0.07,WeatherDisplay:10.37,2013-04-20 00:56:00,
2013-04-19 21:01:00,78.5,71.8,29.98,South,169,6.0,6.0,80,0.00,CLR,,0.07,WeatherDisplay:10.37,2013-04-20 01:01:00,
2013-04-19 21:06:00,78.4,71.7,29.99,South,169,11.5,11.5,80,0.00,CLR,,0.07,WeatherDisplay:10.37,2013-04-20 01:06:00,
2013-04-19 21:11:00,78.5,71.4,29.99,South,169,9.2,9.2,79,0.00,CLR,,0.07,WeatherDisplay:10.37,2013-04-20 01:11:00,
2013-04-19 21:16:00,78.5,71.4,29.99,SSW,192,4.6,4.6,79,0.00,CLR,,0.07,WeatherDisplay:10.37,2013-04-20 01:16:00,
2013-04-19 21:21:00,78.4,71.3,29.99,SSE,168,5.8,5.8,79,0.00,CLR,,0.07,WeatherDisplay:10.37,2013-04-20 01:21:00,
2013-04-19 21:26:00,78.4,71.3,29.99,SSW,202,11.5,11.5,79,0.00,CLR,,0.07,WeatherDisplay:10.37,2013-04-20 01:26:00,
2013-04-19 21:31:00,78.4,71.7,30.00,SSE,159,9.2,9.2,80,0.00,CLR,,0.07,WeatherDisplay:10.37,2013-04-20 01:31:00,
2013-04-19 21:36:00,78.4,71.7,30.00,South,185,5.8,5.8,80,0.00,CLR,,0.07,WeatherDisplay:10.37,2013-04-20 01:36:00,
2013-04-19 21:41:00,78.4,71.7,30.00,SSE,167,9.2,9.2,80,0.00,CLR,,0.07,WeatherDisplay:10.37,2013-04-20 01:41:00,
2013-04-19 21:46:00,78.3,72.0,30.00,South,170,5.8,5.8,81,0.00,CLR,,0.07,WeatherDisplay:10.37,2013-04-20 01:46:00,
2013-04-19 21:51:00,78.3,72.0,30.00,South,186,6.9,6.9,81,0.00,CLR,,0.07,WeatherDisplay:10.37,2013-04-20 01:51:00,
2013-04-19 21:56:00,78.2,71.9,30.00,SSE,166,4.6,4.6,81,0.00,CLR,,0.07,WeatherDisplay:10.37,2013-04-20 01:56:00,
2013-04-19 22:01:00,78.1,72.2,30.00,South,188,4.6,4.6,82,0.00,CLR,,0.07,WeatherDisplay:10.37,2013-04-20 02:01:00,
2013-04-19 22:06:00,78.0,72.1,30.01,South,171,3.5,3.5,82,0.00,CLR,,0.07,WeatherDisplay:10.37,2013-04-20 02:06:00,
2013-04-19 22:11:00,77.9,72.0,30.01,South,175,5.8,5.8,82,0.00,CLR,,0.07,WeatherDisplay:10.37,2013-04-20 02:11:00,
2013-04-19 22:16:00,77.9,72.3,30.01,South,172,4.6,4.6,83,0.00,CLR,,0.07,WeatherDisplay:10.37,2013-04-20 02:16:00,
2013-04-19 22:21:00,77.8,72.2,30.00,South,178,3.5,3.5,83,0.00,CLR,,0.07,WeatherDisplay:10.37,2013-04-20 02:21:00,
2013-04-19 22:26:00,77.7,72.1,30.00,SSE,168,3.5,3.5,83,0.00,CLR,,0.07,WeatherDisplay:10.37,2013-04-20 02:26:00,
2013-04-19 22:31:00,77.6,72.4,30.00,South,178,2.3,2.3,84,0.00,CLR,,0.07,WeatherDisplay:10.37,2013-04-20 02:31:00,
2013-04-19 22:36:00,77.5,72.3,30.00,SSE,164,3.5,3.5,84,0.00,CLR,,0.07,WeatherDisplay:10.37,2013-04-20 02:36:00,
2013-04-19 22:41:00,77.4,72.2,30.01,SSE,154,3.5,3.5,84,0.00,CLR,,0.07,WeatherDisplay:10.37,2013-04-20 02:41:00,
2013-04-19 22:46:00,77.3,72.4,30.01,South,177,4.6,4.6,85,0.00,CLR,,0.07,WeatherDisplay:10.37,2013-04-20 02:46:00,
2013-04-19 22:51:00,77.3,72.4,30.00,SSE,157,4.6,4.6,85,0.00,CLR,,0.07,WeatherDisplay:10.37,2013-04-20 02:51:00,
2013-04-19 22:56:00,77.4,72.5,30.00,South,170,4.6,4.6,85,0.00,CLR,,0.07,WeatherDisplay:10.37,2013-04-20 02:56:00,
2013-04-19 23:01:00,77.4,72.9,30.00,SSE,167,3.5,3.5,86,0.00,CLR,,0.07,WeatherDisplay:10.37,2013-04-20 03:01:00,
2013-04-19 23:06:00,77.4,72.9,30.00,South,175,3.5,3.5,86,0.00,CLR,,0.07,WeatherDisplay:10.37,2013-04-20 03:06:00,
2013-04-19 23:11:00,77.3,72.8,30.00,South,177,5.8,5.8,86,0.00,CLR,,0.07,WeatherDisplay:10.37,2013-04-20 03:11:00,
2013-04-19 23:16:00,77.2,72.7,30.00,SSE,159,4.6,4.6,86,0.00,CLR,,0.07,WeatherDisplay:10.37,2013-04-20 03:16:00,
2013-04-19 23:21:00,77.3,73.1,30.00,SSE,152,3.5,3.5,87,0.00,CLR,,0.07,WeatherDisplay:10.37,2013-04-20 03:21:00,
2013-04-19 23:26:00,77.3,73.1,30.00,SSE,157,4.6,4.6,87,0.00,CLR,,0.07,WeatherDisplay:10.37,2013-04-20 03:26:00,
2013-04-19 23:31:00,77.3,72.8,30.00,SSW,197,11.5,11.5,86,0.00,CLR,,0.07,WeatherDisplay:10.37,2013-04-20 03:31:00,
2013-04-19 23:36:00,77.3,71.7,30.00,SSE,152,10.4,10.4,83,0.00,CLR,,0.07,WeatherDisplay:10.37,2013-04-20 03:36:00,
2013-04-19 23:41:00,77.3,71.4,30.00,SSE,165,9.2,9.2,82,0.00,CLR,,0.07,WeatherDisplay:10.37,2013-04-20 03:41:00,
2013-04-19 23:46:00,77.1,71.2,30.00,SE,134,11.5,11.5,82,0.00,CLR,,0.07,WeatherDisplay:10.37,2013-04-20 03:46:00,
2013-04-19 23:51:00,77.0,71.4,29.99,SSE,162,9.2,9.2,83,0.00,CLR,,0.07,WeatherDisplay:10.37,2013-04-20 03:51:00,
2013-04-19 23:56:00,76.8,71.6,29.99,South,189,10.4,10.4,84,0.00,CLR,,0.07,WeatherDisplay:10.37,2013-04-20 03:56:00,